PWSweather.com
Personal Weather Stations
Station Observations
KNHHOOKS9
Hooksett Pinnacle Peak, Hooksett, NH 03106

Hooksett Pinnacle PeakHooksett, NH 03106

Lat: 43.0954576, Lon: -71.46843790000003

Elevation: 298

Station Type: David VP2

Latest ConditionsUpdated 3:00:09 PM EDT Monday, Jun 25, 2018
Currently Today's Max Today's Min Today's Average
Temperature 72.6°F22.6°C 73.3°F22.9°C 60.1°F15.6°C 64.9°F18.3°C
Dew Point 48.2°F9.0°C 63.5°F17.5°C 45.9°F7.7°C 57.7°F14.3°C
Winds Calm Calm 6.0 mph -9.7 kmh - - 1.0 mph 1.6 kmh
Wind Gusts -- 9.0 mph14.5 kmh - -
Humidity 42% 98% 39% 81%
Pressure 29.97 in1014.9 mb 29.97 in1014.9 mb 29.79 in1008.8 mb -
Hour Temp Dew Point Humidity Winds Wind Gusts Pressure Precip Precip Rate Daily Precip Total
03:00 PM 72.6°F22.6°C 48.2°F9.0°C 42% Calm Calm -- 29.97 in1014.9 mb 0.01 in0.3 mm 0.00 in0.0 mm 0.20 in5.1 mm
02:50 PM 73.3°F22.9°C 49.5°F9.7°C 43% Calm Calm -- 29.97 in1014.9 mb 0.01 in0.3 mm 0.00 in0.0 mm 0.20 in5.1 mm
02:40 PM 72.5°F22.5°C 50.0°F10.0°C 45% 1.0 mph NE1.6 kmh NE 1.0 mph1.6 kmh 29.97 in1014.9 mb 0.01 in0.3 mm 0.00 in0.0 mm 0.20 in5.1 mm
02:30 PM 71.7°F22.1°C 49.8°F9.9°C 46% Calm Calm -- 29.97 in1014.9 mb 0.01 in0.3 mm 0.00 in0.0 mm 0.20 in5.1 mm
02:20 PM 72.1°F22.3°C 49.0°F9.4°C 44% Calm Calm 1.0 mph1.6 kmh 29.97 in1014.9 mb 0.01 in0.3 mm 0.00 in0.0 mm 0.20 in5.1 mm
02:10 PM 71.9°F22.2°C 47.0°F8.3°C 41% 1.0 mph N1.6 kmh N 1.0 mph1.6 kmh 29.97 in1014.9 mb 0.02 in0.5 mm 0.06 in1.5 mm 0.20 in5.1 mm
02:00 PM 72.2°F22.3°C 45.9°F7.7°C 39% Calm Calm 3.0 mph4.8 kmh 29.97 in1014.9 mb 0.01 in0.3 mm 0.00 in0.0 mm 0.19 in4.8 mm
01:50 PM 72.3°F22.4°C 47.3°F8.5°C 41% 4.0 mph NNE6.4 kmh NNE 7.0 mph11.3 kmh 29.97 in1014.9 mb 0.01 in0.3 mm 0.00 in0.0 mm 0.19 in4.8 mm
01:40 PM 72.9°F22.7°C 48.5°F9.2°C 42% Calm Calm -- 29.97 in1014.9 mb 0.01 in0.3 mm 0.00 in0.0 mm 0.19 in4.8 mm
01:30 PM 72.9°F22.7°C 50.3°F10.2°C 45% Calm Calm 1.0 mph1.6 kmh 29.96 in1014.6 mb 0.02 in0.5 mm 0.00 in0.0 mm 0.19 in4.8 mm
01:20 PM 72.6°F22.6°C 49.5°F9.7°C 44% Calm Calm 3.0 mph4.8 kmh 29.96 in1014.6 mb 0.02 in0.5 mm 0.06 in1.5 mm 0.19 in4.8 mm
01:10 PM 72.5°F22.5°C 50.0°F10.0°C 45% 5.0 mph SW8.0 kmh SW 5.0 mph8.0 kmh 29.96 in1014.6 mb 0.01 in0.3 mm 0.00 in0.0 mm 0.18 in4.6 mm
01:00 PM 72.6°F22.6°C 50.7°F10.4°C 46% 2.0 mph NE3.2 kmh NE 2.0 mph3.2 kmh 29.96 in1014.6 mb 0.02 in0.5 mm 0.00 in0.0 mm 0.18 in4.6 mm
12:50 PM 72.3°F22.4°C 53.2°F11.8°C 51% Calm Calm 6.0 mph9.7 kmh 29.96 in1014.6 mb 0.02 in0.5 mm 0.00 in0.0 mm 0.18 in4.6 mm
12:40 PM 71.8°F22.1°C 51.1°F10.6°C 48% 6.0 mph NE9.7 kmh NE 8.0 mph12.9 kmh 29.96 in1014.6 mb 0.03 in0.8 mm 0.06 in1.5 mm 0.18 in4.6 mm
12:30 PM 71.4°F21.9°C 52.4°F11.3°C 51% 2.0 mph N3.2 kmh N 2.0 mph3.2 kmh 29.97 in1014.9 mb 0.02 in0.5 mm 0.00 in0.0 mm 0.17 in4.3 mm
12:20 PM 71.3°F21.8°C 53.8°F12.1°C 54% 4.0 mph N6.4 kmh N 4.0 mph6.4 kmh 29.96 in1014.6 mb 0.02 in0.5 mm 0.00 in0.0 mm 0.17 in4.3 mm
12:10 PM 70.8°F21.6°C 53.9°F12.2°C 55% 5.0 mph NE8.0 kmh NE 5.0 mph8.0 kmh 29.96 in1014.6 mb 0.03 in0.8 mm 0.06 in1.5 mm 0.17 in4.3 mm
12:00 PM 70.4°F21.3°C 53.0°F11.7°C 54% 6.0 mph NE9.7 kmh NE 6.0 mph9.7 kmh 29.96 in1014.6 mb 0.02 in0.5 mm 0.00 in0.0 mm 0.16 in4.1 mm
11:50 AM 71.1°F21.7°C 53.1°F11.7°C 53% 4.0 mph SSE6.4 kmh SSE 9.0 mph14.5 kmh 29.95 in1014.2 mb 0.02 in0.5 mm 0.00 in0.0 mm 0.16 in4.1 mm
11:40 AM 70.9°F21.6°C 54.9°F12.7°C 57% 2.0 mph E3.2 kmh E 5.0 mph8.0 kmh 29.94 in1013.9 mb 0.02 in0.5 mm 0.00 in0.0 mm 0.16 in4.1 mm
11:30 AM 70.1°F21.2°C 53.7°F12.1°C 56% 1.0 mph NE1.6 kmh NE 9.0 mph14.5 kmh 29.94 in1013.9 mb 0.02 in0.5 mm 0.00 in0.0 mm 0.16 in4.1 mm
11:20 AM 69.2°F20.7°C 54.7°F12.6°C 60% 2.0 mph SSW3.2 kmh SSW 9.0 mph14.5 kmh 29.94 in1013.9 mb 0.02 in0.5 mm 0.06 in1.5 mm 0.16 in4.1 mm
11:10 AM 68.0°F20.0°C 54.1°F12.3°C 61% 4.0 mph NE6.4 kmh NE 4.0 mph6.4 kmh 29.94 in1013.9 mb 0.01 in0.3 mm 0.00 in0.0 mm 0.15 in3.8 mm
11:00 AM 67.6°F19.8°C 53.7°F12.1°C 61% 6.0 mph NE9.7 kmh NE 6.0 mph9.7 kmh 29.93 in1013.5 mb 0.01 in0.3 mm 0.00 in0.0 mm 0.15 in3.8 mm
10:50 AM 66.9°F19.4°C 55.6°F13.1°C 67% 4.0 mph NE6.4 kmh NE 4.0 mph6.4 kmh 29.93 in1013.5 mb 0.02 in0.5 mm 0.00 in0.0 mm 0.15 in3.8 mm
10:40 AM 65.8°F18.8°C 55.4°F13.0°C 69% 4.0 mph NE6.4 kmh NE 4.0 mph6.4 kmh 29.93 in1013.5 mb 0.02 in0.5 mm 0.06 in1.5 mm 0.15 in3.8 mm
10:30 AM 65.4°F18.6°C 56.2°F13.4°C 72% 1.0 mph NNE1.6 kmh NNE 3.0 mph4.8 kmh 29.93 in1013.5 mb 0.01 in0.3 mm 0.00 in0.0 mm 0.14 in3.6 mm
10:20 AM 64.6°F18.1°C 55.8°F13.2°C 73% 3.0 mph SSW4.8 kmh SSW 4.0 mph6.4 kmh 29.93 in1013.5 mb 0.01 in0.3 mm 0.00 in0.0 mm 0.14 in3.6 mm
10:10 AM 63.1°F17.3°C 55.4°F13.0°C 76% 2.0 mph N3.2 kmh N 4.0 mph6.4 kmh 29.92 in1013.2 mb 0.02 in0.5 mm 0.00 in0.0 mm 0.14 in3.6 mm
10:00 AM 63.1°F17.3°C 55.8°F13.2°C 77% 1.0 mph NNE1.6 kmh NNE 3.0 mph4.8 kmh 29.92 in1013.2 mb 0.02 in0.5 mm 0.01 in0.3 mm 0.14 in3.6 mm
09:50 AM 63.3°F17.4°C 56.7°F13.7°C 79% 1.0 mph NNE1.6 kmh NNE 3.0 mph4.8 kmh 29.91 in1012.9 mb 0.01 in0.3 mm 0.00 in0.0 mm 0.13 in3.3 mm
09:40 AM 63.5°F17.5°C 57.6°F14.2°C 81% 1.0 mph NE1.6 kmh NE 2.0 mph3.2 kmh 29.91 in1012.9 mb 0.02 in0.5 mm 0.00 in0.0 mm 0.13 in3.3 mm
09:30 AM 63.5°F17.5°C 58.3°F14.6°C 83% 2.0 mph ESE3.2 kmh ESE 4.0 mph6.4 kmh 29.90 in1012.5 mb 0.02 in0.5 mm 0.00 in0.0 mm 0.13 in3.3 mm
09:20 AM 62.7°F17.1°C 58.5°F14.7°C 86% 2.0 mph ESE3.2 kmh ESE 3.0 mph4.8 kmh 29.89 in1012.2 mb 0.02 in0.5 mm 0.00 in0.0 mm 0.13 in3.3 mm
09:10 AM 62.7°F17.1°C 58.5°F14.7°C 86% 5.0 mph S8.0 kmh S 5.0 mph8.0 kmh 29.89 in1012.2 mb 0.02 in0.5 mm 0.00 in0.0 mm 0.13 in3.3 mm
09:00 AM 62.8°F17.1°C 58.9°F14.9°C 87% Calm Calm 2.0 mph3.2 kmh 29.89 in1012.2 mb 0.02 in0.5 mm 0.00 in0.0 mm 0.13 in3.3 mm
08:50 AM 62.6°F17.0°C 59.3°F15.2°C 89% 1.0 mph S1.6 kmh S 4.0 mph6.4 kmh 29.88 in1011.9 mb 0.02 in0.5 mm 0.00 in0.0 mm 0.13 in3.3 mm
08:40 AM 62.7°F17.1°C 59.1°F15.1°C 88% 2.0 mph S3.2 kmh S 2.0 mph3.2 kmh 29.87 in1011.5 mb 0.02 in0.5 mm 0.00 in0.0 mm 0.13 in3.3 mm
08:30 AM 62.7°F17.1°C 59.4°F15.2°C 89% 1.0 mph SE1.6 kmh SE 2.0 mph3.2 kmh 29.87 in1011.5 mb 0.02 in0.5 mm 0.00 in0.0 mm 0.13 in3.3 mm
08:20 AM 62.7°F17.1°C 59.7°F15.4°C 90% 1.0 mph SE1.6 kmh SE 7.0 mph11.3 kmh 29.87 in1011.5 mb 0.02 in0.5 mm 0.00 in0.0 mm 0.13 in3.3 mm
08:10 AM 62.7°F17.1°C 60.0°F15.6°C 91% 1.0 mph ESE1.6 kmh ESE 3.0 mph4.8 kmh 29.86 in1011.2 mb 0.02 in0.5 mm 0.00 in0.0 mm 0.13 in3.3 mm
08:00 AM 62.4°F16.9°C 60.7°F15.9°C 94% Calm Calm -- 29.85 in1010.8 mb 0.02 in0.5 mm 0.00 in0.0 mm 0.13 in3.3 mm
07:50 AM 62.1°F16.7°C 60.7°F15.9°C 95% Calm Calm -- 29.85 in1010.8 mb 0.02 in0.5 mm 0.00 in0.0 mm 0.13 in3.3 mm
07:40 AM 62.0°F16.7°C 60.6°F15.9°C 95% Calm Calm -- 29.85 in1010.8 mb 0.02 in0.5 mm 0.00 in0.0 mm 0.13 in3.3 mm
07:30 AM 62.1°F16.7°C 61.0°F16.1°C 96% Calm Calm -- 29.85 in1010.8 mb 0.02 in0.5 mm 0.00 in0.0 mm 0.13 in3.3 mm
07:20 AM 61.9°F16.6°C 61.0°F16.1°C 97% Calm Calm -- 29.84 in1010.5 mb 0.02 in0.5 mm 0.00 in0.0 mm 0.13 in3.3 mm
07:10 AM 61.6°F16.4°C 61.0°F16.1°C 98% Calm Calm -- 29.84 in1010.5 mb 0.02 in0.5 mm 0.00 in0.0 mm 0.13 in3.3 mm
07:00 AM 61.3°F16.3°C 60.7°F15.9°C 98% Calm Calm -- 29.83 in1010.2 mb 0.02 in0.5 mm 0.00 in0.0 mm 0.13 in3.3 mm
06:50 AM 61.1°F16.2°C 60.5°F15.8°C 98% Calm Calm -- 29.83 in1010.2 mb 0.03 in0.8 mm 0.06 in1.5 mm 0.13 in3.3 mm
06:40 AM 61.0°F16.1°C 60.4°F15.8°C 98% Calm Calm -- 29.83 in1010.2 mb 0.02 in0.5 mm 0.00 in0.0 mm 0.12 in3.0 mm
06:30 AM 61.0°F16.1°C 60.4°F15.8°C 98% Calm Calm -- 29.83 in1010.2 mb 0.02 in0.5 mm 0.00 in0.0 mm 0.12 in3.0 mm
06:20 AM 60.8°F16.0°C 60.2°F15.7°C 98% Calm Calm -- 29.83 in1010.2 mb 0.03 in0.8 mm 0.06 in1.5 mm 0.12 in3.0 mm
06:10 AM 60.6°F15.9°C 60.0°F15.6°C 98% Calm Calm -- 29.83 in1010.2 mb 0.02 in0.5 mm 0.00 in0.0 mm 0.11 in2.8 mm
06:00 AM 60.5°F15.8°C 59.9°F15.5°C 98% Calm Calm -- 29.82 in1009.8 mb 0.03 in0.8 mm 0.01 in0.3 mm 0.11 in2.8 mm
05:50 AM 60.3°F15.7°C 59.7°F15.4°C 98% Calm Calm -- 29.82 in1009.8 mb 0.02 in0.5 mm 0.00 in0.0 mm 0.10 in2.5 mm
05:40 AM 60.1°F15.6°C 59.5°F15.3°C 98% Calm Calm -- 29.82 in1009.8 mb 0.03 in0.8 mm 0.00 in0.0 mm 0.10 in2.5 mm
05:30 AM 60.1°F15.6°C 59.3°F15.2°C 97% Calm Calm -- 29.82 in1009.8 mb 0.03 in0.8 mm 0.00 in0.0 mm 0.10 in2.5 mm
05:20 AM 60.3°F15.7°C 59.5°F15.3°C 97% Calm Calm -- 29.82 in1009.8 mb 0.03 in0.8 mm 0.00 in0.0 mm 0.10 in2.5 mm
05:10 AM 60.5°F15.8°C 59.7°F15.4°C 97% Calm Calm -- 29.81 in1009.5 mb 0.03 in0.8 mm 0.00 in0.0 mm 0.10 in2.5 mm
05:00 AM 60.7°F15.9°C 59.9°F15.5°C 97% Calm Calm -- 29.81 in1009.5 mb 0.03 in0.8 mm 0.00 in0.0 mm 0.10 in2.5 mm
04:50 AM 60.9°F16.1°C 60.1°F15.6°C 97% Calm Calm -- 29.81 in1009.5 mb 0.03 in0.8 mm 0.00 in0.0 mm 0.10 in2.5 mm
04:40 AM 61.0°F16.1°C 60.2°F15.7°C 97% Calm Calm -- 29.81 in1009.5 mb 0.03 in0.8 mm 0.00 in0.0 mm 0.10 in2.5 mm
04:30 AM 61.1°F16.2°C 60.3°F15.7°C 97% Calm Calm -- 29.80 in1009.1 mb 0.04 in1.0 mm 0.06 in1.5 mm 0.10 in2.5 mm
04:20 AM 61.2°F16.2°C 60.4°F15.8°C 97% Calm Calm -- 29.80 in1009.1 mb 0.03 in0.8 mm 0.00 in0.0 mm 0.09 in2.3 mm
04:10 AM 61.3°F16.3°C 60.4°F15.8°C 97% Calm Calm -- 29.80 in1009.1 mb 0.04 in1.0 mm 0.06 in1.5 mm 0.09 in2.3 mm
04:00 AM 61.3°F16.3°C 60.4°F15.8°C 97% Calm Calm -- 29.81 in1009.5 mb 0.03 in0.8 mm 0.00 in0.0 mm 0.08 in2.0 mm
03:50 AM 61.5°F16.4°C 60.6°F15.9°C 97% Calm Calm -- 29.81 in1009.5 mb 0.04 in1.0 mm 0.00 in0.0 mm 0.08 in2.0 mm
03:40 AM 61.5°F16.4°C 60.6°F15.9°C 97% Calm Calm -- 29.81 in1009.5 mb 0.04 in1.0 mm 0.00 in0.0 mm 0.08 in2.0 mm
03:30 AM 61.6°F16.4°C 60.7°F15.9°C 97% Calm Calm -- 29.80 in1009.1 mb 0.04 in1.0 mm 0.00 in0.0 mm 0.08 in2.0 mm
03:20 AM 61.7°F16.5°C 60.8°F16.0°C 97% Calm Calm -- 29.80 in1009.1 mb 0.04 in1.0 mm 0.00 in0.0 mm 0.08 in2.0 mm
03:10 AM 61.7°F16.5°C 60.8°F16.0°C 97% Calm Calm -- 29.80 in1009.1 mb 0.04 in1.0 mm 0.00 in0.0 mm 0.08 in2.0 mm
03:00 AM 61.8°F16.6°C 60.9°F16.1°C 97% Calm Calm -- 29.79 in1008.8 mb 0.04 in1.0 mm 0.00 in0.0 mm 0.08 in2.0 mm
02:50 AM 62.0°F16.7°C 61.1°F16.2°C 97% Calm Calm -- 29.79 in1008.8 mb 0.04 in1.0 mm 0.00 in0.0 mm 0.08 in2.0 mm
02:40 AM 62.0°F16.7°C 61.1°F16.2°C 97% Calm Calm -- 29.79 in1008.8 mb 0.05 in1.3 mm 0.00 in0.0 mm 0.08 in2.0 mm
02:30 AM 62.1°F16.7°C 61.2°F16.2°C 97% Calm Calm -- 29.80 in1009.1 mb 0.05 in1.3 mm 0.00 in0.0 mm 0.08 in2.0 mm
02:20 AM 62.1°F16.7°C 61.2°F16.2°C 97% Calm Calm -- 29.80 in1009.1 mb 0.05 in1.3 mm 0.06 in1.5 mm 0.08 in2.0 mm
02:10 AM 62.3°F16.8°C 61.4°F16.3°C 97% Calm Calm -- 29.80 in1009.1 mb 0.04 in1.0 mm 0.00 in0.0 mm 0.07 in1.8 mm
02:00 AM 62.5°F16.9°C 61.6°F16.4°C 97% Calm Calm -- 29.79 in1008.8 mb 0.05 in1.3 mm 0.00 in0.0 mm 0.07 in1.8 mm
01:50 AM 63.0°F17.2°C 62.1°F16.7°C 97% Calm Calm -- 29.79 in1008.8 mb 0.05 in1.3 mm 0.00 in0.0 mm 0.07 in1.8 mm
01:40 AM 63.3°F17.4°C 62.4°F16.9°C 97% Calm Calm -- 29.79 in1008.8 mb 0.05 in1.3 mm 0.00 in0.0 mm 0.07 in1.8 mm
01:30 AM 63.5°F17.5°C 62.9°F17.2°C 98% Calm Calm -- 29.79 in1008.8 mb 0.06 in1.5 mm 0.00 in0.0 mm 0.07 in1.8 mm
01:20 AM 63.5°F17.5°C 62.6°F17.0°C 97% Calm Calm -- 29.79 in1008.8 mb 0.06 in1.5 mm 0.06 in1.5 mm 0.07 in1.8 mm
01:10 AM 63.5°F17.5°C 62.6°F17.0°C 97% Calm Calm -- 29.79 in1008.8 mb 0.05 in1.3 mm 0.00 in0.0 mm 0.06 in1.5 mm
01:00 AM 63.7°F17.6°C 62.8°F17.1°C 97% Calm Calm -- 29.79 in1008.8 mb 0.05 in1.3 mm 0.00 in0.0 mm 0.06 in1.5 mm
12:50 AM 63.7°F17.6°C 62.8°F17.1°C 97% Calm Calm -- 29.79 in1008.8 mb 0.05 in1.3 mm 0.00 in0.0 mm 0.06 in1.5 mm
12:40 AM 63.7°F17.6°C 62.8°F17.1°C 97% Calm Calm -- 29.79 in1008.8 mb 0.05 in1.3 mm 0.00 in0.0 mm 0.06 in1.5 mm
12:30 AM 63.8°F17.7°C 62.9°F17.2°C 97% Calm Calm -- 29.79 in1008.8 mb 0.05 in1.3 mm 0.00 in0.0 mm 0.06 in1.5 mm
12:20 AM 63.9°F17.7°C 63.0°F17.2°C 97% Calm Calm -- 29.79 in1008.8 mb 0.06 in1.5 mm 0.06 in1.5 mm 0.06 in1.5 mm
12:10 AM 64.1°F17.8°C 63.2°F17.3°C 97% Calm Calm -- 29.79 in1008.8 mb 0.05 in1.3 mm 0.00 in0.0 mm 0.05 in1.3 mm
12:00 AM 64.4°F18.0°C 63.5°F17.5°C 97% Calm Calm -- 29.80 in1009.1 mb 0.05 in1.3 mm 0.00 in0.0 mm 0.05 in1.3 mm